sensor_id;sensor_type;location;lat;lon;timestamp;pressure;altitude;pressure_sealevel;temperature;humidity
73633;BME280;61927;50.080;14.418;2023-05-27T00:00:04;100387.22;;;13.36;46.39
73633;BME280;61927;50.080;14.418;2023-05-27T00:02:51;100382.94;;;13.34;46.36
73633;BME280;61927;50.080;14.418;2023-05-27T00:05:17;100390.84;;;13.35;46.22
73633;BME280;61927;50.080;14.418;2023-05-27T00:07:43;100386.53;;;13.33;46.37
73633;BME280;61927;50.080;14.418;2023-05-27T00:10:08;100386.81;;;13.28;46.06
73633;BME280;61927;50.080;14.418;2023-05-27T00:12:35;100382.78;;;13.21;46.42
73633;BME280;61927;50.080;14.418;2023-05-27T00:15:00;100383.47;;;13.24;46.49
73633;BME280;61927;50.080;14.418;2023-05-27T00:17:26;100381.47;;;13.28;46.75
73633;BME280;61927;50.080;14.418;2023-05-27T00:19:52;100384.16;;;13.28;46.19
73633;BME280;61927;50.080;14.418;2023-05-27T00:22:19;100378.31;;;13.21;46.33
73633;BME280;61927;50.080;14.418;2023-05-27T00:24:45;100378.63;;;13.15;46.17
73633;BME280;61927;50.080;14.418;2023-05-27T00:27:10;100389.06;;;13.04;46.46
73633;BME280;61927;50.080;14.418;2023-05-27T00:29:36;100385.88;;;12.98;46.64
73633;BME280;61927;50.080;14.418;2023-05-27T00:32:03;100373.50;;;12.97;46.50
73633;BME280;61927;50.080;14.418;2023-05-27T00:34:29;100379.94;;;12.92;46.73
73633;BME280;61927;50.080;14.418;2023-05-27T00:36:56;100380.47;;;12.83;47.05
73633;BME280;61927;50.080;14.418;2023-05-27T00:39:22;100379.28;;;12.73;47.01
73633;BME280;61927;50.080;14.418;2023-05-27T00:41:49;100376.59;;;12.73;47.05
73633;BME280;61927;50.080;14.418;2023-05-27T00:44:16;100381.16;;;12.71;47.04
73633;BME280;61927;50.080;14.418;2023-05-27T00:46:43;100378.84;;;12.65;47.31
73633;BME280;61927;50.080;14.418;2023-05-27T00:49:09;100372.75;;;12.63;47.21
73633;BME280;61927;50.080;14.418;2023-05-27T00:51:35;100372.91;;;12.60;47.23
73633;BME280;61927;50.080;14.418;2023-05-27T00:54:01;100369.81;;;12.52;47.33
73633;BME280;61927;50.080;14.418;2023-05-27T00:56:27;100369.19;;;12.47;47.62
73633;BME280;61927;50.080;14.418;2023-05-27T00:58:52;100363.88;;;12.47;47.49
73633;BME280;61927;50.080;14.418;2023-05-27T01:01:18;100365.41;;;12.35;47.84
73633;BME280;61927;50.080;14.418;2023-05-27T01:03:44;100364.56;;;12.35;48.21
73633;BME280;61927;50.080;14.418;2023-05-27T01:06:34;100365.41;;;12.35;47.80
73633;BME280;61927;50.080;14.418;2023-05-27T01:09:14;100365.66;;;12.31;48.15
73633;BME280;61927;50.080;14.418;2023-05-27T01:14:43;100369.97;;;12.33;48.16
73633;BME280;61927;50.080;14.418;2023-05-27T01:17:11;100364.81;;;12.30;48.09
73633;BME280;61927;50.080;14.418;2023-05-27T01:19:39;100359.72;;;12.25;48.38
73633;BME280;61927;50.080;14.418;2023-05-27T01:22:14;100370.53;;;12.22;48.46
73633;BME280;61927;50.080;14.418;2023-05-27T01:24:40;100374.22;;;12.20;48.53
73633;BME280;61927;50.080;14.418;2023-05-27T01:27:10;100369.16;;;12.15;48.64
73633;BME280;61927;50.080;14.418;2023-05-27T01:29:40;100376.19;;;12.16;48.79
73633;BME280;61927;50.080;14.418;2023-05-27T01:32:25;100367.88;;;12.22;48.58
73633;BME280;61927;50.080;14.418;2023-05-27T01:35:04;100368.75;;;12.23;48.59
73633;BME280;61927;50.080;14.418;2023-05-27T01:37:37;100368.75;;;12.23;48.76
73633;BME280;61927;50.080;14.418;2023-05-27T01:40:07;100373.03;;;12.25;48.73
73633;BME280;61927;50.080;14.418;2023-05-27T01:42:38;100374.91;;;12.23;48.49
73633;BME280;61927;50.080;14.418;2023-05-27T01:45:05;100376.09;;;12.18;48.81
73633;BME280;61927;50.080;14.418;2023-05-27T01:47:31;100371.19;;;12.10;49.26
73633;BME280;61927;50.080;14.418;2023-05-27T01:49:57;100369.50;;;11.92;49.70
73633;BME280;61927;50.080;14.418;2023-05-27T01:52:23;100375.69;;;11.92;49.71
73633;BME280;61927;50.080;14.418;2023-05-27T01:54:48;100372.94;;;11.94;49.88
73633;BME280;61927;50.080;14.418;2023-05-27T01:57:16;100374.59;;;11.96;49.88
73633;BME280;61927;50.080;14.418;2023-05-27T01:59:41;100378.88;;;11.99;50.01
73633;BME280;61927;50.080;14.418;2023-05-27T02:02:07;100375.13;;;12.03;49.84
73633;BME280;61927;50.080;14.418;2023-05-27T02:04:33;100367.84;;;12.07;49.93
73633;BME280;61927;50.080;14.418;2023-05-27T02:06:58;100365.09;;;12.08;49.92
73633;BME280;61927;50.080;14.418;2023-05-27T02:09:24;100369.41;;;12.11;49.84
73633;BME280;61927;50.080;14.418;2023-05-27T02:11:50;100365.72;;;12.13;49.97
73633;BME280;61927;50.080;14.418;2023-05-27T02:14:16;100374.88;;;12.08;50.16
73633;BME280;61927;50.080;14.418;2023-05-27T02:16:42;100375.13;;;12.03;50.20
73633;BME280;61927;50.080;14.418;2023-05-27T02:19:09;100373.91;;;11.93;50.30
73633;BME280;61927;50.080;14.418;2023-05-27T02:21:35;100371.78;;;11.82;50.84
73633;BME280;61927;50.080;14.418;2023-05-27T02:24:04;100373.69;;;11.80;51.10
73633;BME280;61927;50.080;14.418;2023-05-27T02:26:30;100378.22;;;11.78;51.29
73633;BME280;61927;50.080;14.418;2023-05-27T02:28:55;100384.41;;;11.79;51.36
73633;BME280;61927;50.080;14.418;2023-05-27T02:31:21;100379.44;;;11.71;51.70
73633;BME280;61927;50.080;14.418;2023-05-27T02:33:47;100379.06;;;11.61;51.92
73633;BME280;61927;50.080;14.418;2023-05-27T02:36:13;100377.41;;;11.59;52.08
73633;BME280;61927;50.080;14.418;2023-05-27T02:38:38;100391.47;;;11.61;52.41
73633;BME280;61927;50.080;14.418;2023-05-27T02:41:04;100384.44;;;11.60;52.29
73633;BME280;61927;50.080;14.418;2023-05-27T02:43:30;100381.94;;;11.57;52.21
73633;BME280;61927;50.080;14.418;2023-05-27T02:45:55;100382.97;;;11.54;52.80
73633;BME280;61927;50.080;14.418;2023-05-27T02:48:21;100386.00;;;11.47;53.00
73633;BME280;61927;50.080;14.418;2023-05-27T02:50:47;100387.19;;;11.41;53.22
73633;BME280;61927;50.080;14.418;2023-05-27T02:53:12;100390.69;;;11.42;53.28
73633;BME280;61927;50.080;14.418;2023-05-27T02:55:38;100390.06;;;11.37;53.41
73633;BME280;61927;50.080;14.418;2023-05-27T02:58:03;100391.16;;;11.32;53.71
73633;BME280;61927;50.080;14.418;2023-05-27T03:00:31;100391.00;;;11.36;53.73
73633;BME280;61927;50.080;14.418;2023-05-27T03:02:56;100395.47;;;11.35;53.63
73633;BME280;61927;50.080;14.418;2023-05-27T03:05:22;100390.28;;;11.32;53.91
73633;BME280;61927;50.080;14.418;2023-05-27T03:07:48;100394.81;;;11.30;53.82
73633;BME280;61927;50.080;14.418;2023-05-27T03:10:13;100384.97;;;11.32;54.03
73633;BME280;61927;50.080;14.418;2023-05-27T03:12:39;100387.34;;;11.38;54.45
73633;BME280;61927;50.080;14.418;2023-05-27T03:15:05;100393.19;;;11.45;53.96
73633;BME280;61927;50.080;14.418;2023-05-27T03:17:35;100390.38;;;11.48;54.00
73633;BME280;61927;50.080;14.418;2023-05-27T03:20:01;100390.47;;;11.46;53.67
73633;BME280;61927;50.080;14.418;2023-05-27T03:22:28;100386.09;;;11.45;53.61
73633;BME280;61927;50.080;14.418;2023-05-27T03:24:53;100388.75;;;11.45;53.85
73633;BME280;61927;50.080;14.418;2023-05-27T03:27:20;100393.50;;;11.39;54.06
73633;BME280;61927;50.080;14.418;2023-05-27T03:29:46;100391.38;;;11.28;54.34
73633;BME280;61927;50.080;14.418;2023-05-27T03:32:11;100398.56;;;11.26;54.59
73633;BME280;61927;50.080;14.418;2023-05-27T03:34:37;100396.78;;;11.26;54.82
73633;BME280;61927;50.080;14.418;2023-05-27T03:37:03;100400.75;;;11.18;55.19
73633;BME280;61927;50.080;14.418;2023-05-27T03:39:29;100401.84;;;11.14;55.42
73633;BME280;61927;50.080;14.418;2023-05-27T03:41:54;100401.50;;;11.03;55.57
73633;BME280;61927;50.080;14.418;2023-05-27T03:44:20;100398.13;;;10.99;55.99
73633;BME280;61927;50.080;14.418;2023-05-27T03:46:45;100404.16;;;11.03;55.72
73633;BME280;61927;50.080;14.418;2023-05-27T03:49:11;100406.31;;;10.94;56.09
73633;BME280;61927;50.080;14.418;2023-05-27T03:51:37;100402.81;;;10.94;56.28
73633;BME280;61927;50.080;14.418;2023-05-27T03:54:02;100408.81;;;10.97;56.35
73633;BME280;61927;50.080;14.418;2023-05-27T03:56:28;100406.53;;;10.90;56.71
73633;BME280;61927;50.080;14.418;2023-05-27T03:58:54;100410.28;;;10.86;57.01
73633;BME280;61927;50.080;14.418;2023-05-27T04:01:21;100408.34;;;10.89;56.61
73633;BME280;61927;50.080;14.418;2023-05-27T04:03:47;100408.91;;;10.96;56.78
73633;BME280;61927;50.080;14.418;2023-05-27T04:06:13;100401.50;;;11.03;56.58
73633;BME280;61927;50.080;14.418;2023-05-27T04:08:38;100409.38;;;11.04;56.66
73633;BME280;61927;50.080;14.418;2023-05-27T04:11:10;100409.91;;;10.93;57.11
73633;BME280;61927;50.080;14.418;2023-05-27T04:13:38;100410.63;;;10.78;57.46
73633;BME280;61927;50.080;14.418;2023-05-27T04:16:04;100410.94;;;10.72;57.59
73633;BME280;61927;50.080;14.418;2023-05-27T04:18:29;100410.94;;;10.72;57.97
73633;BME280;61927;50.080;14.418;2023-05-27T04:20:55;100429.88;;;10.83;57.54
73633;BME280;61927;50.080;14.418;2023-05-27T04:23:20;100436.81;;;10.86;57.65
73633;BME280;61927;50.080;14.418;2023-05-27T04:25:46;100430.00;;;10.80;58.15
73633;BME280;61927;50.080;14.418;2023-05-27T04:28:13;100436.31;;;10.78;58.25
73633;BME280;61927;50.080;14.418;2023-05-27T04:30:41;100430.59;;;10.87;57.94
73633;BME280;61927;50.080;14.418;2023-05-27T04:33:07;100431.78;;;10.98;57.90
73633;BME280;61927;50.080;14.418;2023-05-27T04:35:33;100432.13;;;11.10;57.56
73633;BME280;61927;50.080;14.418;2023-05-27T04:37:59;100437.94;;;11.18;57.64
73633;BME280;61927;50.080;14.418;2023-05-27T04:40:27;100436.00;;;11.21;57.30
73633;BME280;61927;50.080;14.418;2023-05-27T04:42:54;100433.97;;;11.26;57.26
73633;BME280;61927;50.080;14.418;2023-05-27T04:45:22;100438.06;;;11.33;57.06
73633;BME280;61927;50.080;14.418;2023-05-27T04:47:47;100440.47;;;11.38;57.29
73633;BME280;61927;50.080;14.418;2023-05-27T04:50:13;100441.97;;;11.44;56.90
73633;BME280;61927;50.080;14.418;2023-05-27T04:52:39;100443.50;;;11.30;57.02
73633;BME280;61927;50.080;14.418;2023-05-27T04:55:08;100441.31;;;11.21;57.58
73633;BME280;61927;50.080;14.418;2023-05-27T04:57:35;100444.97;;;11.19;57.60
73633;BME280;61927;50.080;14.418;2023-05-27T05:00:03;100439.09;;;11.12;58.00
73633;BME280;61927;50.080;14.418;2023-05-27T05:02:30;100443.41;;;11.15;57.73
73633;BME280;61927;50.080;14.418;2023-05-27T05:05:06;100439.59;;;11.20;57.86
73633;BME280;61927;50.080;14.418;2023-05-27T05:07:32;100442.81;;;11.27;57.55
73633;BME280;61927;50.080;14.418;2023-05-27T05:10:04;100432.75;;;11.33;57.61
73633;BME280;61927;50.080;14.418;2023-05-27T05:12:30;100441.81;;;11.47;57.24
73633;BME280;61927;50.080;14.418;2023-05-27T05:14:57;100445.03;;;11.53;56.76
73633;BME280;61927;50.080;14.418;2023-05-27T05:17:23;100451.66;;;11.45;57.12
73633;BME280;61927;50.080;14.418;2023-05-27T05:19:50;100450.25;;;11.38;57.34
73633;BME280;61927;50.080;14.418;2023-05-27T05:22:16;100446.72;;;11.37;57.53
73633;BME280;61927;50.080;14.418;2023-05-27T05:24:44;100435.09;;;11.40;57.61
73633;BME280;61927;50.080;14.418;2023-05-27T05:27:10;100442.75;;;11.46;57.59
73633;BME280;61927;50.080;14.418;2023-05-27T05:29:35;100440.09;;;11.46;57.38
73633;BME280;61927;50.080;14.418;2023-05-27T05:32:02;100430.88;;;11.36;58.08
73633;BME280;61927;50.080;14.418;2023-05-27T05:34:28;100437.03;;;11.36;57.93
73633;BME280;61927;50.080;14.418;2023-05-27T05:36:54;100434.50;;;11.16;58.56
73633;BME280;61927;50.080;14.418;2023-05-27T05:39:19;100433.41;;;11.20;58.69
73633;BME280;61927;50.080;14.418;2023-05-27T05:41:48;100437.13;;;11.35;58.76
73633;BME280;61927;50.080;14.418;2023-05-27T05:44:15;100430.78;;;11.37;58.12
73633;BME280;61927;50.080;14.418;2023-05-27T05:46:40;100434.00;;;11.44;58.16
73633;BME280;61927;50.080;14.418;2023-05-27T05:49:06;100438.84;;;11.53;58.26
73633;BME280;61927;50.080;14.418;2023-05-27T05:51:32;100439.09;;;11.48;57.95
73633;BME280;61927;50.080;14.418;2023-05-27T05:53:58;100438.00;;;11.52;58.16
73633;BME280;61927;50.080;14.418;2023-05-27T05:56:24;100442.78;;;11.63;58.02
73633;BME280;61927;50.080;14.418;2023-05-27T05:58:51;100441.59;;;11.69;57.68
73633;BME280;61927;50.080;14.418;2023-05-27T06:01:17;100440.31;;;11.77;57.73
73633;BME280;61927;50.080;14.418;2023-05-27T06:03:43;100444.94;;;11.91;57.69
73633;BME280;61927;50.080;14.418;2023-05-27T06:06:09;100449.38;;;11.90;57.29
73633;BME280;61927;50.080;14.418;2023-05-27T06:08:35;100454.16;;;11.84;57.56
73633;BME280;61927;50.080;14.418;2023-05-27T06:11:00;100448.41;;;11.74;57.92
73633;BME280;61927;50.080;14.418;2023-05-27T06:13:26;100451.06;;;11.74;57.76
73633;BME280;61927;50.080;14.418;2023-05-27T06:15:52;100447.34;;;11.78;58.05
73633;BME280;61927;50.080;14.418;2023-05-27T06:18:17;100447.91;;;11.85;57.59
73633;BME280;61927;50.080;14.418;2023-05-27T06:20:43;100449.38;;;11.90;57.60
73633;BME280;61927;50.080;14.418;2023-05-27T06:23:09;100451.81;;;11.95;57.76
73633;BME280;61927;50.080;14.418;2023-05-27T06:25:34;100448.66;;;12.04;57.54
73633;BME280;61927;50.080;14.418;2023-05-27T06:28:00;100457.13;;;12.12;57.45
73633;BME280;61927;50.080;14.418;2023-05-27T06:30:26;100446.38;;;12.14;57.30
73633;BME280;61927;50.080;14.418;2023-05-27T06:32:52;100443.41;;;12.20;57.45
73633;BME280;61927;50.080;14.418;2023-05-27T06:35:18;100443.94;;;12.26;57.10
73633;BME280;61927;50.080;14.418;2023-05-27T06:37:43;100448.25;;;12.29;56.70
73633;BME280;61927;50.080;14.418;2023-05-27T06:40:10;100446.44;;;12.29;57.04
73633;BME280;61927;50.080;14.418;2023-05-27T06:42:39;100439.84;;;12.37;57.02
73633;BME280;61927;50.080;14.418;2023-05-27T06:45:05;100439.34;;;12.46;56.74
73633;BME280;61927;50.080;14.418;2023-05-27T06:47:31;100438.00;;;12.54;56.58
73633;BME280;61927;50.080;14.418;2023-05-27T06:49:56;100438.38;;;12.64;56.14
73633;BME280;61927;50.080;14.418;2023-05-27T06:52:22;100429.78;;;12.75;55.94
73633;BME280;61927;50.080;14.418;2023-05-27T06:54:48;100436.06;;;12.89;55.97
73633;BME280;61927;50.080;14.418;2023-05-27T06:57:13;100438.91;;;12.86;55.50
73633;BME280;61927;50.080;14.418;2023-05-27T06:59:39;100435.22;;;12.89;55.12
73633;BME280;61927;50.080;14.418;2023-05-27T07:02:06;100440.03;;;12.98;54.92
73633;BME280;61927;50.080;14.418;2023-05-27T07:04:34;100441.41;;;13.05;54.64
73633;BME280;61927;50.080;14.418;2023-05-27T07:07:02;100442.69;;;13.14;54.63
73633;BME280;61927;50.080;14.418;2023-05-27T07:09:28;100432.97;;;13.13;55.01
73633;BME280;61927;50.080;14.418;2023-05-27T07:11:53;100436.84;;;13.07;55.10
73633;BME280;61927;50.080;14.418;2023-05-27T07:14:19;100437.13;;;13.18;54.93
73633;BME280;61927;50.080;14.418;2023-05-27T07:16:44;100439.84;;;13.33;54.86
73633;BME280;61927;50.080;14.418;2023-05-27T07:19:10;100435.44;;;13.47;54.05
73633;BME280;61927;50.080;14.418;2023-05-27T07:21:36;100433.38;;;13.52;53.71
73633;BME280;61927;50.080;14.418;2023-05-27T07:24:02;100432.50;;;13.52;53.59
73633;BME280;61927;50.080;14.418;2023-05-27T07:26:32;100435.38;;;13.49;54.10
73633;BME280;61927;50.080;14.418;2023-05-27T07:28:59;100439.56;;;13.53;53.29
73633;BME280;61927;50.080;14.418;2023-05-27T07:31:26;100436.53;;;13.59;54.04
73633;BME280;61927;50.080;14.418;2023-05-27T07:33:52;100437.72;;;13.69;53.88
73633;BME280;61927;50.080;14.418;2023-05-27T07:36:18;100440.13;;;13.74;53.56
73633;BME280;61927;50.080;14.418;2023-05-27T07:38:43;100440.25;;;13.86;53.49
73633;BME280;61927;50.080;14.418;2023-05-27T07:41:10;100433.41;;;13.97;53.09
73633;BME280;61927;50.080;14.418;2023-05-27T07:43:36;100435.81;;;14.01;53.09
73633;BME280;61927;50.080;14.418;2023-05-27T07:46:02;100437.97;;;13.95;52.95
73633;BME280;61927;50.080;14.418;2023-05-27T07:48:28;100429.78;;;13.98;52.74
73633;BME280;61927;50.080;14.418;2023-05-27T07:50:54;100425.88;;;14.03;52.39
73633;BME280;61927;50.080;14.418;2023-05-27T07:53:20;100421.63;;;14.15;52.09
73633;BME280;61927;50.080;14.418;2023-05-27T07:55:46;100420.19;;;14.23;51.36
73633;BME280;61927;50.080;14.418;2023-05-27T07:58:12;100416.19;;;14.31;51.68
73633;BME280;61927;50.080;14.418;2023-05-27T08:00:38;100420.41;;;14.35;51.16
73633;BME280;61927;50.080;14.418;2023-05-27T08:03:03;100409.03;;;14.31;50.91
73633;BME280;61927;50.080;14.418;2023-05-27T08:05:32;100413.25;;;14.35;50.90
73633;BME280;61927;50.080;14.418;2023-05-27T08:07:59;100417.44;;;14.39;50.59
73633;BME280;61927;50.080;14.418;2023-05-27T08:10:25;100407.63;;;14.40;49.81
73633;BME280;61927;50.080;14.418;2023-05-27T08:12:54;100408.31;;;14.43;49.51
73633;BME280;61927;50.080;14.418;2023-05-27T08:15:20;100406.22;;;14.48;49.30
73633;BME280;61927;50.080;14.418;2023-05-27T08:17:45;100406.88;;;14.52;49.93
73633;BME280;61927;50.080;14.418;2023-05-27T08:20:11;100399.34;;;14.59;50.29
73633;BME280;61927;50.080;14.418;2023-05-27T08:22:37;100400.38;;;14.56;49.39
73633;BME280;61927;50.080;14.418;2023-05-27T08:25:05;100389.88;;;14.67;49.55
73633;BME280;61927;50.080;14.418;2023-05-27T08:27:52;100388.66;;;14.59;48.54
73633;BME280;61927;50.080;14.418;2023-05-27T08:30:18;100383.28;;;14.73;48.58
73633;BME280;61927;50.080;14.418;2023-05-27T08:32:43;100377.34;;;14.82;48.71
73633;BME280;61927;50.080;14.418;2023-05-27T08:35:10;100378.88;;;14.86;48.77
73633;BME280;61927;50.080;14.418;2023-05-27T08:37:37;100373.22;;;14.91;48.95
73633;BME280;61927;50.080;14.418;2023-05-27T08:40:04;100371.66;;;15.01;48.18
73633;BME280;61927;50.080;14.418;2023-05-27T08:42:33;100379.53;;;15.16;48.39
73633;BME280;61927;50.080;14.418;2023-05-27T08:44:59;100369.94;;;15.27;47.06
73633;BME280;61927;50.080;14.418;2023-05-27T08:47:27;100364.75;;;15.38;46.89
73633;BME280;61927;50.080;14.418;2023-05-27T08:49:53;100362.91;;;15.38;46.91
73633;BME280;61927;50.080;14.418;2023-05-27T08:52:19;100369.56;;;15.45;46.59
73633;BME280;61927;50.080;14.418;2023-05-27T08:54:46;100365.53;;;15.52;46.52
73633;BME280;61927;50.080;14.418;2023-05-27T08:57:13;100363.44;;;15.58;46.36
73633;BME280;61927;50.080;14.418;2023-05-27T08:59:41;100360.13;;;15.79;46.47
73633;BME280;61927;50.080;14.418;2023-05-27T09:02:11;100353.28;;;15.88;46.11
73633;BME280;61927;50.080;14.418;2023-05-27T09:04:40;100356.50;;;15.93;45.59
73633;BME280;61927;50.080;14.418;2023-05-27T09:07:07;100348.25;;;15.96;44.94
73633;BME280;61927;50.080;14.418;2023-05-27T09:09:33;100347.84;;;16.02;44.23
73633;BME280;61927;50.080;14.418;2023-05-27T09:11:59;100349.75;;;16.13;43.80
73633;BME280;61927;50.080;14.418;2023-05-27T09:14:27;100334.78;;;15.98;43.84
73633;BME280;61927;50.080;14.418;2023-05-27T09:16:54;100341.31;;;15.94;44.41
73633;BME280;61927;50.080;14.418;2023-05-27T09:19:20;100338.09;;;16.01;44.85
73633;BME280;61927;50.080;14.418;2023-05-27T09:21:45;100334.56;;;16.01;44.72
73633;BME280;61927;50.080;14.418;2023-05-27T09:24:11;100337.97;;;16.03;45.00
73633;BME280;61927;50.080;14.418;2023-05-27T09:26:38;100328.88;;;16.05;44.12
73633;BME280;61927;50.080;14.418;2023-05-27T09:29:07;100331.13;;;16.11;44.79
73633;BME280;61927;50.080;14.418;2023-05-27T09:31:40;100332.41;;;16.19;44.82
73633;BME280;61927;50.080;14.418;2023-05-27T09:34:13;100322.84;;;16.27;44.19
73633;BME280;61927;50.080;14.418;2023-05-27T09:36:48;100327.97;;;16.43;43.51
73633;BME280;61927;50.080;14.418;2023-05-27T09:39:14;100325.25;;;16.56;43.28
73633;BME280;61927;50.080;14.418;2023-05-27T09:41:41;100327.31;;;16.65;43.38
73633;BME280;61927;50.080;14.418;2023-05-27T09:44:08;100327.25;;;16.77;42.76
73633;BME280;61927;50.080;14.418;2023-05-27T09:46:37;100327.66;;;16.84;42.70
73633;BME280;61927;50.080;14.418;2023-05-27T09:49:04;100323.28;;;16.83;41.00
73633;BME280;61927;50.080;14.418;2023-05-27T09:51:31;100325.94;;;16.83;41.39
73633;BME280;61927;50.080;14.418;2023-05-27T09:53:58;100324.28;;;16.93;41.87
73633;BME280;61927;50.080;14.418;2023-05-27T09:56:25;100317.34;;;16.91;40.95
73633;BME280;61927;50.080;14.418;2023-05-27T09:58:55;100317.00;;;16.95;41.21
73633;BME280;61927;50.080;14.418;2023-05-27T10:01:28;100320.81;;;17.04;41.41
73633;BME280;61927;50.080;14.418;2023-05-27T10:03:55;100306.22;;;17.08;41.49
73633;BME280;61927;50.080;14.418;2023-05-27T10:06:22;100312.66;;;17.05;40.75
73633;BME280;61927;50.080;14.418;2023-05-27T10:08:50;100310.03;;;16.93;41.77
73633;BME280;61927;50.080;14.418;2023-05-27T10:11:18;100300.63;;;16.87;41.68
73633;BME280;61927;50.080;14.418;2023-05-27T10:13:44;100296.56;;;16.82;40.74
73633;BME280;61927;50.080;14.418;2023-05-27T10:16:25;100299.66;;;16.88;41.67
73633;BME280;61927;50.080;14.418;2023-05-27T10:18:55;100297.03;;;16.99;41.77
73633;BME280;61927;50.080;14.418;2023-05-27T10:21:29;100299.66;;;17.12;41.38
73633;BME280;61927;50.080;14.418;2023-05-27T10:24:00;100292.47;;;17.13;41.44
73633;BME280;61927;50.080;14.418;2023-05-27T10:26:33;100294.03;;;17.15;41.08
73633;BME280;61927;50.080;14.418;2023-05-27T10:29:12;100288.81;;;17.14;41.21
73633;BME280;61927;50.080;14.418;2023-05-27T10:31:50;100279.56;;;17.18;40.79
73633;BME280;61927;50.080;14.418;2023-05-27T10:34:17;100286.78;;;17.28;39.86
73633;BME280;61927;50.080;14.418;2023-05-27T10:36:44;100278.75;;;17.39;40.34
73633;BME280;61927;50.080;14.418;2023-05-27T10:39:15;100283.03;;;17.42;39.40
73633;BME280;61927;50.080;14.418;2023-05-27T10:41:51;100278.53;;;17.42;38.92
73633;BME280;61927;50.080;14.418;2023-05-27T10:44:36;100273.91;;;17.44;39.49
73633;BME280;61927;50.080;14.418;2023-05-27T10:47:10;100266.47;;;17.48;39.04
73633;BME280;61927;50.080;14.418;2023-05-27T10:49:38;100271.34;;;17.54;39.09
73633;BME280;61927;50.080;14.418;2023-05-27T10:52:08;100261.84;;;17.50;39.76
73633;BME280;61927;50.080;14.418;2023-05-27T10:54:47;100267.56;;;17.46;39.46
73633;BME280;61927;50.080;14.418;2023-05-27T10:57:14;100267.94;;;17.52;38.94
73633;BME280;61927;50.080;14.418;2023-05-27T10:59:52;100257.94;;;17.54;40.30
73633;BME280;61927;50.080;14.418;2023-05-27T11:02:19;100255.63;;;17.61;40.15
73633;BME280;61927;50.080;14.418;2023-05-27T11:04:49;100254.09;;;17.69;38.69
73633;BME280;61927;50.080;14.418;2023-05-27T11:07:19;100254.34;;;17.89;38.43
73633;BME280;61927;50.080;14.418;2023-05-27T11:09:47;100241.78;;;18.00;38.03
73633;BME280;61927;50.080;14.418;2023-05-27T11:12:17;100245.94;;;18.04;37.96
73633;BME280;61927;50.080;14.418;2023-05-27T11:14:48;100239.94;;;18.12;36.65
73633;BME280;61927;50.080;14.418;2023-05-27T11:17:15;100231.88;;;18.23;36.47
73633;BME280;61927;50.080;14.418;2023-05-27T11:19:42;100236.13;;;18.26;36.84
73633;BME280;61927;50.080;14.418;2023-05-27T11:22:08;100230.75;;;18.26;36.83
73633;BME280;61927;50.080;14.418;2023-05-27T11:24:35;100224.13;;;18.41;36.42
73633;BME280;61927;50.080;14.418;2023-05-27T11:27:12;100222.44;;;18.40;36.46
73633;BME280;61927;50.080;14.418;2023-05-27T11:29:39;100224.13;;;18.41;36.59
73633;BME280;61927;50.080;14.418;2023-05-27T11:32:06;100216.38;;;18.59;37.14
73633;BME280;61927;50.080;14.418;2023-05-27T11:34:35;100221.59;;;18.83;36.44
73633;BME280;61927;50.080;14.418;2023-05-27T11:37:02;100212.91;;;18.79;35.10
73633;BME280;61927;50.080;14.418;2023-05-27T11:39:31;100212.19;;;18.77;34.57
73633;BME280;61927;50.080;14.418;2023-05-27T11:41:58;100210.50;;;18.76;35.04
73633;BME280;61927;50.080;14.418;2023-05-27T11:44:25;100199.59;;;18.78;34.09
73633;BME280;61927;50.080;14.418;2023-05-27T11:46:58;100204.25;;;18.76;34.10
73633;BME280;61927;50.080;14.418;2023-05-27T11:49:28;100195.38;;;18.64;34.20
73633;BME280;61927;50.080;14.418;2023-05-27T11:51:57;100201.31;;;18.79;33.64
73633;BME280;61927;50.080;14.418;2023-05-27T11:54:30;100186.97;;;18.89;34.02
73633;BME280;61927;50.080;14.418;2023-05-27T11:56:58;100183.09;;;19.03;33.82
73633;BME280;61927;50.080;14.418;2023-05-27T11:59:24;100181.66;;;19.20;33.72
73633;BME280;61927;50.080;14.418;2023-05-27T12:01:52;100182.75;;;19.38;33.37
73633;BME280;61927;50.080;14.418;2023-05-27T12:04:20;100178.00;;;19.51;33.21
73633;BME280;61927;50.080;14.418;2023-05-27T12:06:46;100172.72;;;19.61;32.62
73633;BME280;61927;50.080;14.418;2023-05-27T12:09:13;100181.94;;;19.68;32.40
73633;BME280;61927;50.080;14.418;2023-05-27T12:11:39;100181.91;;;19.58;32.58
73633;BME280;61927;50.080;14.418;2023-05-27T12:14:05;100182.09;;;19.46;33.23
73633;BME280;61927;50.080;14.418;2023-05-27T12:16:31;100177.69;;;19.45;32.91
73633;BME280;61927;50.080;14.418;2023-05-27T12:18:57;100179.13;;;19.49;32.72
73633;BME280;61927;50.080;14.418;2023-05-27T12:21:23;100182.81;;;19.48;32.79
73633;BME280;61927;50.080;14.418;2023-05-27T12:23:49;100173.19;;;19.24;33.51
73633;BME280;61927;50.080;14.418;2023-05-27T12:26:16;100174.69;;;19.38;33.42
73633;BME280;61927;50.080;14.418;2023-05-27T12:28:42;100176.66;;;19.57;33.69
73633;BME280;61927;50.080;14.418;2023-05-27T12:31:07;100170.78;;;19.73;33.69
73633;BME280;61927;50.080;14.418;2023-05-27T12:33:34;100171.97;;;19.89;33.68
73633;BME280;61927;50.080;14.418;2023-05-27T12:36:00;100158.69;;;20.07;32.84
73633;BME280;61927;50.080;14.418;2023-05-27T12:38:26;100163.50;;;20.04;33.09
73633;BME280;61927;50.080;14.418;2023-05-27T12:40:52;100163.81;;;20.20;33.63
73633;BME280;61927;50.080;14.418;2023-05-27T12:43:18;100162.03;;;20.40;33.81